Time;durP1;ratioP1;P1;durP2;ratioP2;P2;SDS_P1;SDS_P2;PMS_P1;PMS_P2;Temp;Humidity;BMP_temperature;BMP_pressure;BME280_temperature;BME280_humidity;BME280_pressure;Samples;Min_cycle;Max_cycle;Signal;HPM_P1;HPM_P2
2023/05/19 00:00:02;;;;;;;1.30;1.23;;;;;10.20;96444.00;;;;5074128;28;20187;-60
2023/05/19 00:02:32;;;;;;;0.60;0.60;;;;;10.20;96450.00;;;;5072664;28;20219;-61
2023/05/19 00:05:02;;;;;;;0.70;0.70;;;;;10.10;96436.00;;;;5074037;28;20214;-63
2023/05/19 00:07:31;;;;;;;0.80;0.80;;;;;10.00;96445.00;;;;5074041;28;20192;-62
2023/05/19 00:09:59;;;;;;;0.90;0.90;;;;;10.10;96443.00;;;;5074222;28;20360;-62
2023/05/19 00:12:27;;;;;;;1.13;1.13;;;;;10.10;96450.00;;;;5073910;28;20219;-61
2023/05/19 00:14:55;;;;;;;0.80;0.80;;;;;10.20;96449.00;;;;5073895;28;20196;-61
2023/05/19 00:17:23;;;;;;;0.80;0.80;;;;;10.20;96439.00;;;;5073837;28;20371;-61
2023/05/19 00:19:51;;;;;;;0.83;0.83;;;;;10.10;96439.00;;;;5073785;28;20187;-61
2023/05/19 00:22:20;;;;;;;2.40;1.17;;;;;10.00;96435.00;;;;5073994;28;20316;-62
2023/05/19 00:24:47;;;;;;;1.37;1.30;;;;;9.90;96443.00;;;;5073614;28;20272;-62
2023/05/19 00:27:15;;;;;;;0.90;0.90;;;;;10.10;96436.00;;;;5073684;28;20223;-61
2023/05/19 00:29:42;;;;;;;0.90;0.90;;;;;10.10;96439.00;;;;5073682;28;20187;-62
2023/05/19 00:32:10;;;;;;;1.40;1.30;;;;;9.90;96442.00;;;;5073518;28;20218;-61
2023/05/19 00:34:37;;;;;;;1.67;1.57;;;;;9.90;96433.00;;;;5073698;28;20735;-61
2023/05/19 00:37:05;;;;;;;0.80;0.80;;;;;9.90;96428.00;;;;5073745;28;20192;-61
2023/05/19 00:39:33;;;;;;;1.30;1.27;;;;;9.90;96430.00;;;;5073525;28;20191;-60
2023/05/19 00:42:01;;;;;;;4.27;1.20;;;;;9.90;96430.00;;;;5072052;28;20717;-61
2023/05/19 00:44:28;;;;;;;0.70;0.70;;;;;9.90;96433.00;;;;5073393;28;20319;-61
2023/05/19 00:46:57;;;;;;;1.90;1.00;;;;;9.90;96426.00;;;;5073409;28;20192;-61
2023/05/19 00:49:24;;;;;;;1.47;1.37;;;;;9.90;96423.00;;;;5073918;28;20199;-62
2023/05/19 00:51:52;;;;;;;0.87;0.87;;;;;9.80;96419.00;;;;5073251;28;20218;-60
2023/05/19 00:54:20;;;;;;;0.83;0.83;;;;;9.90;96424.00;;;;5073618;28;20195;-61
2023/05/19 00:56:49;;;;;;;0.70;0.70;;;;;9.90;96416.00;;;;5073575;28;20194;-61
2023/05/19 00:59:17;;;;;;;0.90;0.90;;;;;9.90;96416.00;;;;5073531;28;20594;-61
2023/05/19 01:01:47;;;;;;;1.00;1.00;;;;;9.90;96421.00;;;;5073179;28;20211;-62
2023/05/19 01:04:15;;;;;;;2.00;1.90;;;;;10.00;96424.00;;;;5073675;28;20662;-62
2023/05/19 01:06:43;;;;;;;0.97;0.97;;;;;9.80;96421.00;;;;5073198;28;20195;-60
2023/05/19 01:09:11;;;;;;;1.33;1.23;;;;;9.90;96420.00;;;;5071907;28;20195;-60
2023/05/19 01:11:38;;;;;;;0.50;0.50;;;;;9.90;96423.00;;;;5073086;28;20239;-61
2023/05/19 01:14:07;;;;;;;10.63;1.40;;;;;9.90;96423.00;;;;5073175;28;20232;-61
2023/05/19 01:16:40;;;;;;;0.77;0.77;;;;;9.90;96416.00;;;;5073665;28;20200;-61
2023/05/19 01:19:24;;;;;;;1.20;1.20;;;;;10.00;96430.00;;;;5073764;28;20184;-61
2023/05/19 01:22:21;;;;;;;1.00;1.00;;;;;9.90;96425.00;;;;5073279;28;20210;-60
2023/05/19 01:25:22;;;;;;;0.63;0.63;;;;;9.90;96427.00;;;;5073517;28;20203;-60
2023/05/19 01:28:35;;;;;;;0.90;0.90;;;;;9.90;96419.00;;;;5067806;28;20210;-61
2023/05/19 01:31:06;;;;;;;1.33;1.30;;;;;9.90;96425.00;;;;5016862;28;20624;-62
2023/05/19 01:33:34;;;;;;;1.53;1.43;;;;;9.90;96422.00;;;;5077028;28;20180;-62
2023/05/19 01:36:04;;;;;;;1.00;1.00;;;;;9.90;96425.00;;;;5076926;28;20658;-62
2023/05/19 01:38:34;;;;;;;1.00;1.00;;;;;9.90;96418.00;;;;5077428;28;20263;-61
2023/05/19 01:41:05;;;;;;;2.00;0.97;;;;;9.90;96418.00;;;;5076742;28;20264;-61
2023/05/19 01:43:34;;;;;;;0.87;0.87;;;;;9.80;96414.00;;;;5077041;28;20202;-61
2023/05/19 01:46:05;;;;;;;0.53;0.53;;;;;9.80;96417.00;;;;5076904;28;20255;-61
2023/05/19 01:48:33;;;;;;;1.17;1.17;;;;;9.80;96413.00;;;;5077262;28;20186;-61
2023/05/19 01:51:00;;;;;;;0.87;0.87;;;;;9.70;96419.00;;;;5076568;28;20747;-61
2023/05/19 01:53:28;;;;;;;1.07;1.07;;;;;9.70;96413.00;;;;5076605;28;20248;-61
2023/05/19 01:55:56;;;;;;;0.70;0.70;;;;;9.60;96421.00;;;;5076806;28;20527;-62
2023/05/19 01:58:32;;;;;;;0.80;0.80;;;;;9.60;96421.00;;;;5076434;28;20685;-61
2023/05/19 02:01:16;;;;;;;0.90;0.90;;;;;9.70;96418.00;;;;5075105;28;20698;-60
2023/05/19 02:03:56;;;;;;;0.93;0.93;;;;;9.70;96417.00;;;;5076384;28;20249;-61
2023/05/19 02:06:32;;;;;;;0.77;0.77;;;;;9.60;96414.00;;;;5075109;28;20617;-61
2023/05/19 02:09:04;;;;;;;0.90;0.90;;;;;9.70;96422.00;;;;5076381;28;20175;-60
2023/05/19 02:11:37;;;;;;;1.37;1.37;;;;;9.60;96406.00;;;;5076175;28;20215;-60
2023/05/19 02:14:13;;;;;;;1.13;1.07;;;;;9.50;96417.00;;;;5076246;28;20230;-60
2023/05/19 02:16:46;;;;;;;3.30;1.33;;;;;9.40;96422.00;;;;5076214;28;20179;-60
2023/05/19 02:19:21;;;;;;;1.10;1.10;;;;;9.50;96429.00;;;;5076195;28;20204;-60
2023/05/19 02:21:49;;;;;;;2.10;1.50;;;;;9.50;96431.00;;;;5076198;28;20214;-60
2023/05/19 02:24:16;;;;;;;1.27;1.17;;;;;9.50;96423.00;;;;5076169;28;20222;-61
2023/05/19 02:26:44;;;;;;;0.80;0.80;;;;;9.40;96428.00;;;;5075965;28;20666;-61
2023/05/19 02:29:11;;;;;;;1.00;1.00;;;;;9.50;96427.00;;;;5075991;28;20223;-60
2023/05/19 02:31:39;;;;;;;0.63;0.63;;;;;9.50;96422.00;;;;5076062;28;20211;-60
2023/05/19 02:34:08;;;;;;;0.90;0.90;;;;;9.50;96422.00;;;;5076430;28;20207;-60
2023/05/19 02:36:36;;;;;;;0.50;0.50;;;;;9.50;96417.00;;;;5075830;28;20201;-61
2023/05/19 02:39:04;;;;;;;1.27;1.27;;;;;9.50;96413.00;;;;5076220;28;20237;-60
2023/05/19 02:41:31;;;;;;;0.60;0.60;;;;;9.50;96411.00;;;;5075751;28;20210;-60
2023/05/19 02:43:59;;;;;;;0.80;0.80;;;;;9.50;96420.00;;;;5073848;28;20613;-60
2023/05/19 02:46:26;;;;;;;1.10;1.10;;;;;9.40;96406.00;;;;5076281;28;20630;-61
2023/05/19 02:48:54;;;;;;;0.73;0.73;;;;;9.40;96409.00;;;;5075921;28;20195;-60
2023/05/19 02:51:22;;;;;;;0.70;0.70;;;;;9.40;96408.00;;;;5075887;28;20219;-60
2023/05/19 02:53:50;;;;;;;0.80;0.80;;;;;9.40;96408.00;;;;5075780;28;20189;-61
2023/05/19 02:56:17;;;;;;;0.90;0.90;;;;;9.40;96409.00;;;;5075568;28;20662;-61
2023/05/19 02:58:45;;;;;;;0.60;0.60;;;;;9.50;96404.00;;;;5075970;28;20192;-61
2023/05/19 03:01:12;;;;;;;0.77;0.77;;;;;9.50;96401.00;;;;5075413;28;20211;-61
2023/05/19 03:03:39;;;;;;;0.60;0.60;;;;;9.40;96400.00;;;;5075301;28;20183;-61
2023/05/19 03:06:08;;;;;;;0.67;0.67;;;;;9.40;96402.00;;;;5075484;28;20195;-61
2023/05/19 03:08:37;;;;;;;0.60;0.60;;;;;9.40;96399.00;;;;5075506;28;20227;-61
2023/05/19 03:11:04;;;;;;;1.00;1.00;;;;;9.50;96400.00;;;;5075119;28;20269;-61
2023/05/19 03:13:32;;;;;;;1.00;1.00;;;;;9.40;96394.00;;;;5075442;28;20597;-62
2023/05/19 03:16:00;;;;;;;1.60;1.50;;;;;9.50;96393.00;;;;5075192;28;20202;-61
2023/05/19 03:18:28;;;;;;;0.77;0.77;;;;;9.50;96397.00;;;;5074962;28;20203;-62
2023/05/19 03:20:55;;;;;;;1.13;1.13;;;;;9.50;96392.00;;;;5074860;28;20215;-61
2023/05/19 03:23:23;;;;;;;0.63;0.63;;;;;9.40;96389.00;;;;5074875;28;20188;-61
2023/05/19 03:25:52;;;;;;;1.10;1.10;;;;;9.50;96402.00;;;;5075307;28;20215;-62
2023/05/19 03:28:22;;;;;;;1.23;1.20;;;;;9.50;96396.00;;;;5075299;28;20241;-62
2023/05/19 03:30:49;;;;;;;0.77;0.77;;;;;9.40;96393.00;;;;5075149;28;20714;-62
2023/05/19 03:33:17;;;;;;;0.80;0.80;;;;;9.40;96396.00;;;;5074860;28;20253;-63
2023/05/19 03:35:45;;;;;;;0.80;0.80;;;;;9.40;96400.00;;;;5074855;28;20188;-62
2023/05/19 03:38:12;;;;;;;0.90;0.90;;;;;9.30;96396.00;;;;5074554;28;20256;-62
2023/05/19 03:40:41;;;;;;;1.33;1.23;;;;;9.40;96402.00;;;;5074952;28;20199;-62
2023/05/19 03:43:09;;;;;;;1.10;1.10;;;;;9.30;96407.00;;;;5074469;28;20278;-62
2023/05/19 03:45:37;;;;;;;0.67;0.67;;;;;9.30;96407.00;;;;5074581;28;20612;-62
2023/05/19 03:48:05;;;;;;;0.70;0.70;;;;;9.30;96404.00;;;;5074378;28;20245;-61
2023/05/19 03:50:33;;;;;;;3.53;1.10;;;;;9.30;96413.00;;;;5072985;28;20606;-61
2023/05/19 03:53:00;;;;;;;2.87;1.83;;;;;9.30;96406.00;;;;5074210;28;20662;-61
2023/05/19 03:55:29;;;;;;;1.10;1.10;;;;;9.30;96404.00;;;;5073478;28;20195;-62
2023/05/19 03:57:56;;;;;;;0.93;0.93;;;;;9.30;96369.00;;;;5074451;28;20196;-62
2023/05/19 04:00:25;;;;;;;1.00;1.00;;;;;9.30;96400.00;;;;5074095;28;20191;-61
2023/05/19 04:02:53;;;;;;;1.43;1.33;;;;;9.40;96408.00;;;;5074052;28;20264;-61
2023/05/19 04:05:20;;;;;;;0.77;0.77;;;;;9.40;96408.00;;;;5074199;28;20705;-62
2023/05/19 04:07:48;;;;;;;0.73;0.73;;;;;9.50;96408.00;;;;5074257;28;20196;-62
2023/05/19 04:10:15;;;;;;;0.80;0.80;;;;;9.40;96415.00;;;;5073895;28;20195;-62
2023/05/19 04:12:42;;;;;;;0.60;0.60;;;;;9.40;96415.00;;;;5073897;28;20298;-61
2023/05/19 04:15:11;;;;;;;1.00;1.00;;;;;9.50;96407.00;;;;5074095;28;20187;-61
2023/05/19 04:17:40;;;;;;;0.77;0.77;;;;;9.50;96408.00;;;;5074367;28;20195;-62
2023/05/19 04:20:08;;;;;;;1.13;1.13;;;;;9.50;96409.00;;;;5073957;28;20195;-63
2023/05/19 04:22:36;;;;;;;0.83;0.83;;;;;9.50;96405.00;;;;5073602;28;20223;-62
2023/05/19 04:25:04;;;;;;;0.97;0.97;;;;;9.50;96405.00;;;;5073539;28;20614;-62
2023/05/19 04:27:35;;;;;;;1.20;1.20;;;;;9.60;96407.00;;;;5073883;28;20199;-62
2023/05/19 04:30:02;;;;;;;1.00;1.00;;;;;9.60;96395.00;;;;5073859;28;20207;-61
2023/05/19 04:32:30;;;;;;;0.80;0.80;;;;;9.70;96408.00;;;;5073453;28;20309;-61
2023/05/19 04:34:59;;;;;;;1.63;1.53;;;;;9.80;96407.00;;;;5074023;28;20191;-62
2023/05/19 04:37:26;;;;;;;0.50;0.50;;;;;9.90;96404.00;;;;5073764;28;20195;-61
2023/05/19 04:39:54;;;;;;;1.80;1.13;;;;;9.90;96411.00;;;;5073708;28;20554;-63
2023/05/19 04:42:24;;;;;;;0.70;0.70;;;;;9.90;96405.00;;;;5073367;28;20220;-60
2023/05/19 04:44:52;;;;;;;2.23;1.17;;;;;10.00;96405.00;;;;5073285;28;20203;-61
2023/05/19 04:47:20;;;;;;;0.50;0.50;;;;;10.00;96404.00;;;;5073628;28;20204;-63
2023/05/19 04:49:48;;;;;;;0.60;0.60;;;;;10.10;96410.00;;;;5072041;28;20299;-61
2023/05/19 04:52:20;;;;;;;0.80;0.80;;;;;10.00;96411.00;;;;5071877;28;20706;-61
2023/05/19 04:54:47;;;;;;;6.23;1.60;;;;;10.20;96411.00;;;;5073622;28;20180;-62
2023/05/19 04:57:15;;;;;;;0.77;0.77;;;;;10.20;96408.00;;;;5073495;28;20200;-61
2023/05/19 04:59:42;;;;;;;1.20;1.10;;;;;10.20;96412.00;;;;5073313;28;20198;-61
2023/05/19 05:02:10;;;;;;;0.90;0.90;;;;;10.20;96414.00;;;;5073434;28;20207;-61
2023/05/19 05:04:41;;;;;;;1.20;1.13;;;;;10.10;96406.00;;;;5073349;28;20219;-61
2023/05/19 05:07:08;;;;;;;1.33;1.23;;;;;10.20;96407.00;;;;5072892;28;20191;-61
2023/05/19 05:09:37;;;;;;;0.70;0.70;;;;;10.20;96407.00;;;;5073390;28;20562;-61
2023/05/19 05:12:06;;;;;;;0.60;0.60;;;;;10.10;96409.00;;;;5073169;28;20227;-61
2023/05/19 05:14:34;;;;;;;0.70;0.70;;;;;10.30;96395.00;;;;5073576;28;20260;-61
2023/05/19 05:17:02;;;;;;;0.90;0.90;;;;;10.30;96400.00;;;;5072923;28;20196;-62
2023/05/19 05:19:30;;;;;;;0.70;0.70;;;;;10.30;96401.00;;;;5073319;28;20608;-62
2023/05/19 05:21:58;;;;;;;0.73;0.73;;;;;10.50;96398.00;;;;5071701;28;20222;-62
2023/05/19 05:24:26;;;;;;;0.77;0.77;;;;;10.60;96406.00;;;;5073110;28;20191;-61
2023/05/19 05:26:55;;;;;;;10.03;1.00;;;;;10.70;96406.00;;;;5073149;28;20252;-61
2023/05/19 05:29:23;;;;;;;1.23;1.13;;;;;10.80;96395.00;;;;5073218;28;20241;-61
2023/05/19 05:31:50;;;;;;;0.83;0.83;;;;;10.70;96411.00;;;;5071295;28;20698;-61
2023/05/19 05:34:18;;;;;;;3.53;0.93;;;;;10.80;96407.00;;;;5072825;28;20274;-60
2023/05/19 05:36:45;;;;;;;0.80;0.80;;;;;11.00;96401.00;;;;5071423;28;20771;-61
2023/05/19 05:39:12;;;;;;;0.70;0.70;;;;;11.00;96402.00;;;;5072774;28;20221;-62
2023/05/19 05:41:40;;;;;;;0.77;0.77;;;;;11.00;96407.00;;;;5072868;28;20219;-61
2023/05/19 05:44:09;;;;;;;3.37;1.37;;;;;11.10;96408.00;;;;5071457;28;20201;-61
2023/05/19 05:46:36;;;;;;;1.80;1.70;;;;;11.00;96413.00;;;;5072652;28;20218;-62
2023/05/19 05:49:04;;;;;;;0.90;0.90;;;;;11.00;96417.00;;;;5072715;28;20191;-62
2023/05/19 05:51:32;;;;;;;5.13;1.00;;;;;11.10;96412.00;;;;5072553;28;20211;-61
2023/05/19 05:54:02;;;;;;;0.93;0.90;;;;;11.00;96408.00;;;;5072644;28;20678;-61
2023/05/19 05:56:32;;;;;;;1.10;1.10;;;;;11.10;96416.00;;;;5072622;28;20194;-61
2023/05/19 05:58:59;;;;;;;1.30;1.13;;;;;11.10;96414.00;;;;5072647;28;20195;-61
2023/05/19 06:01:29;;;;;;;0.83;0.83;;;;;11.30;96413.00;;;;5072499;28;20211;-61
2023/05/19 06:03:56;;;;;;;1.27;1.27;;;;;11.40;96404.00;;;;5072838;28;20195;-61
2023/05/19 06:06:24;;;;;;;0.80;0.80;;;;;11.50;96407.00;;;;5072647;28;20701;-61
2023/05/19 06:08:51;;;;;;;1.07;1.07;;;;;11.50;96404.00;;;;5072540;28;20252;-61
2023/05/19 06:11:19;;;;;;;1.33;1.30;;;;;11.60;96409.00;;;;5072382;28;20219;-60
2023/05/19 06:13:46;;;;;;;1.13;1.13;;;;;11.60;96404.00;;;;5072861;28;20194;-61
2023/05/19 06:16:13;;;;;;;1.93;1.83;;;;;11.70;96406.00;;;;5072474;28;20196;-62
2023/05/19 06:18:42;;;;;;;1.10;1.10;;;;;11.70;96407.00;;;;5073612;28;20214;-61
2023/05/19 06:21:12;;;;;;;13.30;1.27;;;;;11.70;96407.00;;;;5076263;28;20210;-61
2023/05/19 06:23:39;;;;;;;0.83;0.83;;;;;11.70;96404.00;;;;5076823;28;20191;-62
2023/05/19 06:26:07;;;;;;;0.53;0.53;;;;;11.90;96405.00;;;;5075906;28;20678;-61
2023/05/19 06:28:34;;;;;;;1.97;1.27;;;;;12.00;96403.00;;;;5075951;28;20603;-61
2023/05/19 06:31:02;;;;;;;0.90;0.90;;;;;12.10;96408.00;;;;5075886;28;20256;-63
2023/05/19 06:33:29;;;;;;;0.63;0.63;;;;;12.10;96400.00;;;;5075884;28;20198;-66
2023/05/19 06:35:59;;;;;;;1.73;1.20;;;;;12.30;96410.00;;;;5076309;28;20585;-62
2023/05/19 06:38:30;;;;;;;1.27;1.27;;;;;12.30;96397.00;;;;5076047;28;20622;-62
2023/05/19 06:40:57;;;;;;;0.97;0.97;;;;;12.30;96406.00;;;;5076031;28;20298;-62
2023/05/19 06:43:25;;;;;;;2.63;1.87;;;;;12.40;96406.00;;;;5075966;28;20192;-64
2023/05/19 06:45:52;;;;;;;1.30;1.30;;;;;12.60;96404.00;;;;5075567;28;20211;-61
2023/05/19 06:48:19;;;;;;;3.70;1.37;;;;;12.80;96403.00;;;;5075894;28;20187;-62
2023/05/19 06:50:47;;;;;;;1.23;1.23;;;;;12.70;96405.00;;;;5075739;28;20549;-64
2023/05/19 06:53:19;;;;;;;1.33;1.20;;;;;12.90;96422.00;;;;5075747;28;20195;-64
2023/05/19 06:55:49;;;;;;;0.87;0.87;;;;;13.00;96405.00;;;;5074266;28;20620;-63
2023/05/19 06:58:16;;;;;;;1.63;1.53;;;;;13.00;96408.00;;;;5075670;28;20682;-63
2023/05/19 07:00:44;;;;;;;0.97;0.97;;;;;12.90;96422.00;;;;5075476;28;20195;-64
2023/05/19 07:03:11;;;;;;;3.03;1.27;;;;;12.90;96419.00;;;;5075337;28;20195;-63
2023/05/19 07:05:38;;;;;;;1.00;1.00;;;;;13.10;96404.00;;;;5075146;28;20532;-63
2023/05/19 07:08:07;;;;;;;4.17;1.83;;;;;13.20;96407.00;;;;5075262;28;20195;-63
2023/05/19 07:10:36;;;;;;;1.77;1.57;;;;;13.30;96407.00;;;;5075097;28;20727;-64
2023/05/19 07:13:06;;;;;;;1.67;1.57;;;;;13.10;96400.00;;;;5076059;28;20555;-63
2023/05/19 07:15:33;;;;;;;1.10;1.10;;;;;13.40;96411.00;;;;5075092;28;20194;-64
2023/05/19 07:18:01;;;;;;;0.90;0.90;;;;;13.40;96406.00;;;;5075830;28;20206;-63
2023/05/19 07:20:28;;;;;;;0.90;0.90;;;;;13.40;96411.00;;;;5075319;28;20191;-64
2023/05/19 07:22:55;;;;;;;1.40;1.30;;;;;13.40;96404.00;;;;5075695;28;20196;-64
2023/05/19 07:25:24;;;;;;;0.63;0.63;;;;;13.10;96404.00;;;;5075640;28;20215;-63
2023/05/19 07:27:53;;;;;;;1.50;1.40;;;;;13.30;96405.00;;;;5075348;28;20219;-64
2023/05/19 07:30:21;;;;;;;1.00;1.00;;;;;13.30;96405.00;;;;5074654;28;20266;-63
2023/05/19 07:32:48;;;;;;;0.70;0.70;;;;;13.50;96410.00;;;;5074693;28;20213;-63
2023/05/19 07:35:16;;;;;;;1.17;1.17;;;;;13.40;96407.00;;;;5074971;28;20195;-64
2023/05/19 07:37:43;;;;;;;1.07;1.07;;;;;13.70;96407.00;;;;5074625;28;20202;-63
2023/05/19 07:40:11;;;;;;;0.83;0.83;;;;;13.70;96410.00;;;;5074504;28;20241;-63
2023/05/19 07:42:38;;;;;;;1.50;1.40;;;;;13.60;96406.00;;;;5074566;28;20211;-63
2023/05/19 07:45:08;;;;;;;1.00;1.00;;;;;13.80;96398.00;;;;5074580;28;20282;-64
2023/05/19 07:47:36;;;;;;;1.00;1.00;;;;;13.70;96401.00;;;;5074888;28;20202;-64
2023/05/19 07:50:03;;;;;;;1.00;1.00;;;;;13.90;96410.00;;;;5074604;28;20199;-63
2023/05/19 07:52:31;;;;;;;4.23;1.07;;;;;14.10;96393.00;;;;5074251;28;20222;-66
2023/05/19 07:54:59;;;;;;;1.50;1.30;;;;;14.20;96397.00;;;;5074417;28;20202;-64
2023/05/19 07:57:27;;;;;;;0.97;0.97;;;;;14.50;96389.00;;;;5074786;28;20212;-63
2023/05/19 07:59:54;;;;;;;1.97;1.87;;;;;14.70;96389.00;;;;5074211;28;20198;-63
2023/05/19 08:02:23;;;;;;;2.43;1.13;;;;;14.90;96383.00;;;;5073981;28;20693;-63
2023/05/19 08:04:51;;;;;;;1.67;1.57;;;;;15.00;96385.00;;;;5074345;28;20598;-63
2023/05/19 08:07:19;;;;;;;1.07;1.07;;;;;15.00;96381.00;;;;5073952;28;20214;-63
2023/05/19 08:09:46;;;;;;;1.03;1.03;;;;;14.90;96385.00;;;;5073965;28;20227;-63
2023/05/19 08:12:17;;;;;;;1.17;1.17;;;;;15.00;96384.00;;;;5073981;28;20226;-63
2023/05/19 08:14:45;;;;;;;1.73;1.60;;;;;15.00;96385.00;;;;5073957;28;20254;-62
2023/05/19 08:17:13;;;;;;;1.00;1.00;;;;;15.20;96383.00;;;;5074077;28;20210;-63
2023/05/19 08:19:41;;;;;;;1.63;1.53;;;;;15.20;96378.00;;;;5072488;28;20219;-63
2023/05/19 08:22:09;;;;;;;1.87;1.77;;;;;15.10;96379.00;;;;5073743;28;20215;-64
2023/05/19 08:24:37;;;;;;;1.67;1.57;;;;;15.00;96381.00;;;;5073733;28;20195;-63
2023/05/19 08:27:05;;;;;;;0.77;0.77;;;;;14.90;96386.00;;;;5073910;28;20306;-64
2023/05/19 08:29:32;;;;;;;4.80;1.13;;;;;15.00;96374.00;;;;5073625;28;20279;-63
2023/05/19 08:32:01;;;;;;;1.60;1.50;;;;;15.10;96367.00;;;;5073547;28;20216;-62
2023/05/19 08:34:29;;;;;;;1.30;1.30;;;;;15.10;96372.00;;;;5073575;28;20244;-63
2023/05/19 08:36:58;;;;;;;0.83;0.83;;;;;14.90;96379.00;;;;5072250;28;20692;-63
2023/05/19 08:39:26;;;;;;;4.43;1.53;;;;;14.90;96368.00;;;;5073397;28;20693;-63
2023/05/19 08:41:54;;;;;;;3.63;2.73;;;;;15.00;96371.00;;;;5072908;28;20701;-63
2023/05/19 08:44:21;;;;;;;1.60;1.33;;;;;15.00;96374.00;;;;5073990;28;20195;-63
2023/05/19 08:46:51;;;;;;;2.10;1.17;;;;;14.90;96376.00;;;;5073358;28;20217;-64
2023/05/19 08:49:27;;;;;;;1.30;1.20;;;;;14.70;96380.00;;;;5073907;28;20214;-63
2023/05/19 08:52:01;;;;;;;1.50;1.50;;;;;14.80;96384.00;;;;5073407;28;20215;-63
2023/05/19 08:54:33;;;;;;;22.63;1.57;;;;;14.70;96380.00;;;;5073317;28;20180;-63
2023/05/19 08:57:04;;;;;;;1.07;1.07;;;;;14.60;96368.00;;;;5073825;28;20229;-63
2023/05/19 08:59:31;;;;;;;1.10;1.00;;;;;14.70;96374.00;;;;5073320;28;20737;-63
2023/05/19 09:02:00;;;;;;;1.57;1.47;;;;;14.70;96371.00;;;;5073181;28;20207;-63
2023/05/19 09:04:27;;;;;;;1.10;1.03;;;;;14.70;96367.00;;;;5073229;28;20192;-62
2023/05/19 09:06:55;;;;;;;1.43;1.33;;;;;14.50;96373.00;;;;5073145;28;20215;-63
2023/05/19 09:09:24;;;;;;;1.40;1.23;;;;;14.50;96371.00;;;;5073181;28;20270;-63
2023/05/19 09:11:52;;;;;;;0.77;0.77;;;;;14.30;96369.00;;;;5073098;28;20597;-63
2023/05/19 09:14:20;;;;;;;2.10;1.17;;;;;14.40;96372.00;;;;5073047;28;20198;-63
2023/05/19 09:16:49;;;;;;;1.37;1.27;;;;;14.40;96368.00;;;;5073046;28;20245;-63
2023/05/19 09:19:17;;;;;;;0.97;0.97;;;;;14.60;96369.00;;;;5071749;28;20199;-63
2023/05/19 09:21:45;;;;;;;0.70;0.70;;;;;14.70;96374.00;;;;5072934;28;20698;-63
2023/05/19 09:24:12;;;;;;;2.00;1.30;;;;;14.70;96368.00;;;;5073232;28;20241;-63
2023/05/19 09:26:42;;;;;;;0.77;0.77;;;;;14.80;96370.00;;;;5072892;28;20223;-63
2023/05/19 09:29:13;;;;;;;1.73;1.63;;;;;14.70;96365.00;;;;5072922;28;20195;-62
2023/05/19 09:31:47;;;;;;;1.17;1.10;;;;;14.80;96365.00;;;;5072876;28;20254;-63
2023/05/19 09:34:15;;;;;;;6.03;1.43;;;;;15.00;96359.00;;;;5072903;28;20294;-63
2023/05/19 09:36:42;;;;;;;1.87;1.27;;;;;15.00;96357.00;;;;5073026;28;20278;-63
2023/05/19 09:39:17;;;;;;;1.23;1.13;;;;;15.10;96358.00;;;;5072929;28;20194;-63
2023/05/19 09:41:46;;;;;;;1.50;1.40;;;;;15.10;96363.00;;;;5073344;28;20289;-63
2023/05/19 09:44:21;;;;;;;1.30;1.20;;;;;15.20;96359.00;;;;5072723;28;20659;-63
2023/05/19 09:46:49;;;;;;;1.07;0.97;;;;;15.10;96358.00;;;;5072808;28;20205;-62
2023/05/19 09:49:21;;;;;;;8.13;1.13;;;;;15.30;96362.00;;;;5073035;28;20708;-64
2023/05/19 09:51:53;;;;;;;0.90;0.90;;;;;15.50;96355.00;;;;5072639;28;20786;-64
2023/05/19 09:54:22;;;;;;;0.93;0.93;;;;;15.60;96343.00;;;;5074929;28;20681;-65
2023/05/19 09:56:58;;;;;;;1.07;1.07;;;;;15.70;96348.00;;;;5077113;28;20275;-63
2023/05/19 09:59:26;;;;;;;1.00;1.00;;;;;15.50;96350.00;;;;5075805;28;20268;-63
2023/05/19 10:01:56;;;;;;;1.17;1.17;;;;;15.50;96351.00;;;;5076414;28;20207;-64
2023/05/19 10:04:25;;;;;;;1.17;1.13;;;;;15.40;96354.00;;;;5076754;28;20218;-63
2023/05/19 10:06:53;;;;;;;0.70;0.70;;;;;15.30;96353.00;;;;5076445;28;20595;-64
2023/05/19 10:09:24;;;;;;;1.10;1.00;;;;;15.20;96361.00;;;;5076602;28;20278;-62
2023/05/19 10:11:54;;;;;;;1.03;1.03;;;;;15.20;96363.00;;;;5076298;28;20749;-64
2023/05/19 10:14:23;;;;;;;0.63;0.63;;;;;15.00;96359.00;;;;5076588;28;20245;-64
2023/05/19 10:16:52;;;;;;;0.60;0.60;;;;;15.10;96354.00;;;;5076586;28;20192;-64
2023/05/19 10:19:22;;;;;;;1.10;1.10;;;;;15.10;96356.00;;;;5076461;28;20195;-64
2023/05/19 10:21:51;;;;;;;0.97;0.97;;;;;15.30;96360.00;;;;5076157;28;20214;-64
2023/05/19 10:24:20;;;;;;;0.90;0.90;;;;;15.20;96350.00;;;;5076133;28;20196;-64
2023/05/19 10:26:54;;;;;;;0.57;0.57;;;;;15.50;96358.00;;;;5076271;28;20309;-64
2023/05/19 10:29:25;;;;;;;3.60;1.10;;;;;15.60;96346.00;;;;5076477;28;20236;-64
2023/05/19 10:31:55;;;;;;;0.77;0.77;;;;;15.60;96357.00;;;;5076084;28;20220;-64
2023/05/19 10:34:39;;;;;;;0.80;0.80;;;;;15.60;96346.00;;;;5075945;28;20657;-64
2023/05/19 10:37:20;;;;;;;2.67;1.63;;;;;15.40;96346.00;;;;5074623;28;20248;-64
2023/05/19 10:39:51;;;;;;;1.33;1.23;;;;;15.40;96343.00;;;;5075923;28;20254;-64
2023/05/19 10:42:36;;;;;;;1.43;1.33;;;;;15.40;96354.00;;;;5075739;28;20274;-64
2023/05/19 10:45:15;;;;;;;0.93;0.93;;;;;15.60;96359.00;;;;5075957;28;20187;-63
2023/05/19 10:47:42;;;;;;;0.80;0.80;;;;;15.70;96359.00;;;;5076008;28;20701;-64
2023/05/19 10:50:11;;;;;;;2.90;1.00;;;;;15.50;96366.00;;;;5075574;28;20195;-64
2023/05/19 10:52:39;;;;;;;0.80;0.80;;;;;15.50;96363.00;;;;5075435;28;20215;-63
2023/05/19 10:55:08;;;;;;;0.83;0.83;;;;;15.60;96352.00;;;;5075711;28;20241;-64
2023/05/19 10:57:37;;;;;;;0.87;0.87;;;;;15.50;96360.00;;;;5075311;28;20187;-63
2023/05/19 11:00:28;;;;;;;1.03;1.03;;;;;15.40;96356.00;;;;5075295;28;20282;-63
2023/05/19 11:03:13;;;;;;;0.97;0.97;;;;;15.20;96358.00;;;;5075678;28;20211;-64
2023/05/19 11:05:41;;;;;;;1.47;0.93;;;;;15.00;96356.00;;;;5074706;28;20211;-63
2023/05/19 11:08:10;;;;;;;0.80;0.80;;;;;15.10;96363.00;;;;5075436;28;20312;-64
2023/05/19 11:10:38;;;;;;;0.90;0.90;;;;;15.00;96354.00;;;;5075570;28;20203;-62
2023/05/19 11:13:08;;;;;;;0.80;0.80;;;;;15.00;96358.00;;;;5075020;28;20199;-64
2023/05/19 11:15:36;;;;;;;0.87;0.87;;;;;14.80;96361.00;;;;5073847;28;20312;-63
2023/05/19 11:18:05;;;;;;;0.90;0.90;;;;;14.60;96367.00;;;;5075539;28;20230;-63
2023/05/19 11:20:38;;;;;;;0.70;0.70;;;;;14.50;96369.00;;;;5075145;28;20242;-65
2023/05/19 11:23:07;;;;;;;1.50;1.43;;;;;14.70;96365.00;;;;5073720;28;20191;-64
2023/05/19 11:25:46;;;;;;;0.83;0.83;;;;;14.60;96366.00;;;;5074929;28;20533;-64
2023/05/19 11:28:18;;;;;;;1.47;1.27;;;;;14.40;96366.00;;;;5075072;28;20294;-62
2023/05/19 11:30:49;;;;;;;13.13;1.33;;;;;14.40;96363.00;;;;5074883;28;20174;-63
2023/05/19 11:33:18;;;;;;;0.93;0.93;;;;;14.60;96354.00;;;;5075283;28;20265;-63
2023/05/19 11:35:48;;;;;;;0.97;0.97;;;;;14.70;96355.00;;;;5074774;28;20278;-63
2023/05/19 11:38:16;;;;;;;1.07;1.07;;;;;14.80;96355.00;;;;5074670;28;20191;-63
2023/05/19 11:40:46;;;;;;;1.60;1.50;;;;;14.90;96350.00;;;;5074530;28;20203;-65
2023/05/19 11:43:15;;;;;;;1.37;1.20;;;;;15.00;96353.00;;;;5074767;28;20191;-64
2023/05/19 11:45:42;;;;;;;2.33;2.13;;;;;14.80;96357.00;;;;5074376;28;20278;-63
2023/05/19 11:48:12;;;;;;;1.13;1.07;;;;;14.90;96354.00;;;;5074265;28;20251;-63
2023/05/19 11:50:42;;;;;;;0.60;0.60;;;;;15.00;96353.00;;;;5074792;28;20248;-63
2023/05/19 11:53:13;;;;;;;1.83;1.73;;;;;15.10;96347.00;;;;5074567;28;20201;-64
2023/05/19 11:55:44;;;;;;;1.03;1.03;;;;;15.10;96349.00;;;;5074448;28;20184;-64
2023/05/19 11:58:13;;;;;;;1.20;1.00;;;;;15.10;96352.00;;;;5074297;28;20222;-64
2023/05/19 12:00:44;;;;;;;0.93;0.93;;;;;15.10;96358.00;;;;5074311;28;20206;-64
2023/05/19 12:03:12;;;;;;;0.93;0.93;;;;;15.20;96350.00;;;;5074140;28;20183;-64
2023/05/19 12:05:45;;;;;;;0.80;0.80;;;;;15.10;96355.00;;;;5074098;28;20278;-64
2023/05/19 12:08:12;;;;;;;0.70;0.70;;;;;15.10;96359.00;;;;5074330;28;20600;-64
2023/05/19 12:10:40;;;;;;;2.03;1.43;;;;;15.10;96364.00;;;;5074204;28;20551;-64
2023/05/19 12:13:09;;;;;;;0.80;0.80;;;;;14.90;96359.00;;;;5074223;28;20231;-64
2023/05/19 12:15:38;;;;;;;2.60;1.57;;;;;14.80;96364.00;;;;5073433;28;20201;-64
2023/05/19 12:18:06;;;;;;;1.67;1.60;;;;;14.80;96361.00;;;;5073577;28;20659;-64
2023/05/19 12:20:34;;;;;;;2.07;1.77;;;;;14.80;96365.00;;;;5073794;28;20535;-64
2023/05/19 12:23:03;;;;;;;1.23;1.13;;;;;14.80;96367.00;;;;5073755;28;20223;-64
2023/05/19 12:25:31;;;;;;;0.93;0.93;;;;;14.90;96373.00;;;;5073997;28;20565;-64
2023/05/19 12:27:59;;;;;;;1.17;1.13;;;;;14.90;96366.00;;;;5073538;28;20227;-64
2023/05/19 12:30:28;;;;;;;0.93;0.93;;;;;14.80;96369.00;;;;5073714;28;20205;-64